Accueil
METAR-TAF:

METAR-TAF

Aéroports :

Aéroport de Quimper Bretagne, Pluguffan

Quimper, France

latitude: 47-58N, longitude: 004-10W, altitude: 92 m

Observation

Le bulletin a été fait il y a 21 minutes, à 02:00 UTC
Vent 4 kt de ouest/nord-ouest
Température 7°C
Humidité 87%
Pression 1031 hPa
Visibilité 10 km ou plus
Quelques nuages à une hauteur de 3200 ft
Nuages épars à une hauteur de 4000 ft

METAR: LFRQ 100200Z AUTO 29004KT 9999 FEW032 SCT040 07/05 Q1031

Heure: 03:21 (02:21 UTC)

Prévision

Le bulletin a été fait il y a 8 heures et 25 minutes, à 17:56 UTC
Prévision valable du 09 à 18 UTC au 10 à 18 UTC
Vent 15 kt de nord-ouest
Visibilité 10 km ou plus
Nuages fragmentés à une hauteur de 1900 ft
Evoluant progressivement
du 09 à 23 UTC au 10 à 01 UTC
Vent 3 kt de direction variable

TAF: LFRQ 091756Z 0918/1018 31015KT 9999 BKN019 BECMG 0923/1001 VRB03KT

Observations et prévisions météorologiques de plus de 4000 aéroports (messages METAR et TAF).

Les stations disponibles sont représentées par des disques jaunes et rouges sur la carte.

Passer la souris dessus pour voir le nom de la station.

Cliquer dessus pour voir les observations et prévisions météorologiques.

Pour changer de carte: cliquez sur les boutons verts avec une croix noire pour zoomer, sur le bouton vert avec un tiret pour effectuer un zoom arrière, ou sur les flèches vertes pour les cartes adjacentes.


METAR-TAF: